Time;durP1;ratioP1;P1;durP2;ratioP2;P2;SDS_P1;SDS_P2;PMS_P1;PMS_P2;Temp;Humidity;BMP_temperature;BMP_pressure;BME280_temperature;BME280_humidity;BME280_pressure;Samples;Min_cycle;Max_cycle;Signal;HPM_P1;HPM_P2
2023/10/23 00:00:47;;;;;;;16.95;5.53;;;;;;;;;;7370371;19;20002;-76
2023/10/23 00:03:13;;;;;;;11.32;4.78;;;;;;;;;;7389924;19;20017;-76
2023/10/23 00:05:39;;;;;;;11.38;4.68;;;;;;;;;;7368113;19;20006;-76
2023/10/23 00:08:04;;;;;;;14.75;4.93;;;;;;;;;;7369991;19;20027;-76
2023/10/23 00:10:30;;;;;;;12.55;4.18;;;;;;;;;;7369722;19;20023;-76
2023/10/23 00:12:55;;;;;;;10.73;4.35;;;;;;;;;;7368072;19;20030;-76
2023/10/23 00:15:21;;;;;;;11.85;3.80;;;;;;;;;;7390490;19;19998;-77
2023/10/23 00:17:46;;;;;;;12.23;4.20;;;;;;;;;;7369424;19;20596;-77
2023/10/23 00:20:12;;;;;;;17.80;4.45;;;;;;;;;;7368353;19;20007;-77
2023/10/23 00:22:38;;;;;;;10.75;4.68;;;;;;;;;;7369085;19;20010;-77
2023/10/23 00:25:03;;;;;;;12.05;4.85;;;;;;;;;;7368551;19;20071;-77
2023/10/23 00:27:29;;;;;;;12.93;4.72;;;;;;;;;;7412269;19;20047;-77
2023/10/23 00:29:54;;;;;;;13.52;4.95;;;;;;;;;;7385528;19;20003;-77
2023/10/23 00:32:19;;;;;;;14.02;5.03;;;;;;;;;;7376621;19;20010;-77
2023/10/23 00:34:45;;;;;;;17.55;5.72;;;;;;;;;;7377002;19;19998;-76
2023/10/23 00:37:10;;;;;;;14.85;5.22;;;;;;;;;;7407475;19;20027;-76
2023/10/23 00:39:35;;;;;;;21.17;5.82;;;;;;;;;;7427096;19;19990;-76
2023/10/23 00:42:01;;;;;;;15.93;5.55;;;;;;;;;;7394709;19;20018;-78
2023/10/23 00:44:27;;;;;;;15.90;4.95;;;;;;;;;;7397342;19;20019;-76
2023/10/23 00:46:54;;;;;;;11.48;4.60;;;;;;;;;;7402430;19;20013;-76
2023/10/23 00:49:19;;;;;;;18.40;5.85;;;;;;;;;;7403045;19;19999;-76
2023/10/23 00:51:45;;;;;;;12.43;5.75;;;;;;;;;;7391065;19;20397;-76
2023/10/23 00:54:10;;;;;;;14.63;5.70;;;;;;;;;;7396779;19;20031;-76
2023/10/23 00:56:36;;;;;;;12.90;5.93;;;;;;;;;;7367082;19;20011;-78
2023/10/23 00:59:02;;;;;;;22.50;6.30;;;;;;;;;;7368152;19;20014;-75
2023/10/23 01:01:29;;;;;;;14.93;5.30;;;;;;;;;;7367309;19;20069;-76
2023/10/23 01:03:54;;;;;;;16.08;6.15;;;;;;;;;;7365951;19;20016;-78
2023/10/23 01:06:20;;;;;;;17.45;6.22;;;;;;;;;;7389085;19;20011;-77
2023/10/23 01:08:46;;;;;;;13.63;5.05;;;;;;;;;;7368101;19;20010;-78
2023/10/23 01:11:11;;;;;;;12.10;4.68;;;;;;;;;;7368877;19;20014;-76
2023/10/23 01:13:38;;;;;;;12.20;4.63;;;;;;;;;;7392477;19;20049;-76
2023/10/23 01:16:03;;;;;;;23.13;5.97;;;;;;;;;;7382366;19;20051;-76
2023/10/23 01:18:29;;;;;;;15.98;5.88;;;;;;;;;;7399754;19;20006;-77
2023/10/23 01:20:55;;;;;;;13.98;5.22;;;;;;;;;;7368495;19;20006;-78
2023/10/23 01:23:24;;;;;;;13.57;5.45;;;;;;;;;;7364652;19;20093;-76
2023/10/23 01:25:49;;;;;;;20.00;5.18;;;;;;;;;;7364707;19;20002;-76
2023/10/23 01:28:15;;;;;;;16.60;5.47;;;;;;;;;;7365216;19;20017;-76
2023/10/23 01:30:40;;;;;;;11.35;5.47;;;;;;;;;;7361691;19;20515;-77
2023/10/23 01:33:05;;;;;;;15.70;6.53;;;;;;;;;;7383918;19;20010;-75
2023/10/23 01:35:31;;;;;;;13.23;6.32;;;;;;;;;;7362430;19;20011;-76
2023/10/23 01:37:56;;;;;;;17.70;5.40;;;;;;;;;;7364923;19;20006;-75
2023/10/23 01:40:21;;;;;;;15.40;5.55;;;;;;;;;;7364430;19;20010;-75
2023/10/23 01:42:47;;;;;;;13.13;4.90;;;;;;;;;;7363999;19;20010;-76
2023/10/23 01:45:12;;;;;;;16.08;5.95;;;;;;;;;;7386171;19;19999;-77
2023/10/23 01:47:37;;;;;;;19.45;7.97;;;;;;;;;;7366030;19;20010;-75
2023/10/23 01:50:03;;;;;;;18.63;7.20;;;;;;;;;;7366319;19;20011;-76
2023/10/23 01:52:28;;;;;;;15.43;6.88;;;;;;;;;;7365133;19;20203;-76
2023/10/23 01:54:54;;;;;;;17.35;6.40;;;;;;;;;;7365366;19;20023;-76
2023/10/23 01:57:19;;;;;;;20.63;8.10;;;;;;;;;;7388390;19;20487;-76
2023/10/23 01:59:45;;;;;;;19.08;8.05;;;;;;;;;;7366331;19;20034;-76
2023/10/23 02:02:10;;;;;;;20.80;7.55;;;;;;;;;;7364892;19;20791;-76
2023/10/23 02:04:37;;;;;;;13.85;7.25;;;;;;;;;;7364759;19;20457;-76
2023/10/23 02:07:03;;;;;;;14.32;6.80;;;;;;;;;;7366531;19;20010;-79
2023/10/23 02:09:29;;;;;;;13.75;6.85;;;;;;;;;;7388069;19;20017;-76
2023/10/23 02:11:54;;;;;;;19.75;7.60;;;;;;;;;;7364846;19;20007;-76
2023/10/23 02:14:19;;;;;;;14.88;7.18;;;;;;;;;;7365466;19;20034;-76
2023/10/23 02:16:45;;;;;;;18.45;8.00;;;;;;;;;;7365476;19;20048;-77
2023/10/23 02:19:10;;;;;;;23.70;8.13;;;;;;;;;;7365785;19;20059;-76
2023/10/23 02:21:35;;;;;;;19.58;9.50;;;;;;;;;;7387699;19;20002;-76
2023/10/23 02:24:01;;;;;;;17.58;8.60;;;;;;;;;;7363000;19;20020;-76
2023/10/23 02:26:28;;;;;;;20.00;8.20;;;;;;;;;;7365053;19;20024;-76
2023/10/23 02:28:53;;;;;;;21.67;7.70;;;;;;;;;;7365837;19;20074;-76
2023/10/23 02:31:18;;;;;;;20.27;7.97;;;;;;;;;;7364947;19;20745;-76
2023/10/23 02:33:44;;;;;;;15.57;7.72;;;;;;;;;;7362721;19;20034;-76
2023/10/23 02:36:09;;;;;;;18.95;8.95;;;;;;;;;;7387320;19;20010;-76
2023/10/23 02:38:34;;;;;;;17.35;7.75;;;;;;;;;;7363740;19;20023;-76
2023/10/23 02:40:59;;;;;;;15.20;6.72;;;;;;;;;;7365386;19;20519;-76
2023/10/23 02:43:25;;;;;;;16.35;7.00;;;;;;;;;;7368071;19;20624;-75
2023/10/23 02:45:50;;;;;;;15.77;6.47;;;;;;;;;;7369621;19;20114;-76
2023/10/23 02:48:17;;;;;;;13.80;7.50;;;;;;;;;;7408673;19;20011;-76
2023/10/23 02:50:43;;;;;;;15.25;6.78;;;;;;;;;;7391084;19;20003;-76
2023/10/23 02:53:08;;;;;;;17.27;6.53;;;;;;;;;;7378892;19;20038;-76
2023/10/23 02:55:33;;;;;;;15.35;6.80;;;;;;;;;;7372042;19;20102;-76
2023/10/23 02:58:10;;;;;;;15.07;6.53;;;;;;;;;;7372744;19;20050;-75
2023/10/23 03:00:35;;;;;;;14.30;5.97;;;;;;;;;;7408987;19;19999;-76
2023/10/23 03:03:00;;;;;;;13.60;6.43;;;;;;;;;;7389033;19;20031;-76
2023/10/23 03:05:26;;;;;;;18.85;6.25;;;;;;;;;;7398400;19;20357;-75
2023/10/23 03:07:51;;;;;;;14.18;5.60;;;;;;;;;;7406105;19;20034;-77
2023/10/23 03:10:16;;;;;;;11.38;5.05;;;;;;;;;;7406422;19;20385;-76
2023/10/23 03:12:42;;;;;;;11.75;5.72;;;;;;;;;;7404891;19;20032;-75
2023/10/23 03:15:08;;;;;;;14.00;5.85;;;;;;;;;;7400727;19;20005;-76
2023/10/23 03:17:33;;;;;;;13.40;6.45;;;;;;;;;;7371680;19;20023;-76
2023/10/23 03:19:58;;;;;;;31.98;7.82;;;;;;;;;;7371080;19;20459;-75
2023/10/23 03:22:24;;;;;;;26.70;8.40;;;;;;;;;;7370877;19;20011;-75
2023/10/23 03:24:49;;;;;;;38.05;8.95;;;;;;;;;;7369377;19;20002;-77
2023/10/23 03:27:14;;;;;;;25.02;8.68;;;;;;;;;;7392919;19;20018;-75
2023/10/23 03:29:43;;;;;;;30.13;9.63;;;;;;;;;;7370355;19;20515;-76
2023/10/23 03:32:09;;;;;;;41.17;10.32;;;;;;;;;;7370455;19;20103;-77
2023/10/23 03:34:34;;;;;;;29.08;9.90;;;;;;;;;;7370058;19;20022;-77
2023/10/23 03:36:59;;;;;;;38.33;10.75;;;;;;;;;;7370662;19;20022;-76
2023/10/23 03:39:25;;;;;;;159.88;15.32;;;;;;;;;;7390455;19;20003;-76
2023/10/23 03:41:50;;;;;;;404.50;23.98;;;;;;;;;;7369447;19;20488;-75
2023/10/23 03:44:15;;;;;;;373.98;21.35;;;;;;;;;;7368406;19;20771;-75
2023/10/23 03:46:40;;;;;;;300.67;19.30;;;;;;;;;;7370205;19;20078;-76
2023/10/23 03:49:06;;;;;;;324.23;21.20;;;;;;;;;;7369881;19;20006;-76
2023/10/23 03:51:31;;;;;;;234.32;19.80;;;;;;;;;;7392890;19;19994;-77
2023/10/23 03:53:56;;;;;;;291.88;20.95;;;;;;;;;;7364635;19;20363;-77
2023/10/23 03:56:22;;;;;;;130.70;14.93;;;;;;;;;;7370975;19;20390;-75
2023/10/23 03:58:47;;;;;;;80.72;13.00;;;;;;;;;;7370772;19;20014;-75
2023/10/23 04:01:12;;;;;;;49.97;11.90;;;;;;;;;;7370900;19;20038;-76
2023/10/23 04:03:38;;;;;;;32.42;11.38;;;;;;;;;;7381540;19;20003;-76
2023/10/23 04:06:04;;;;;;;70.65;12.57;;;;;;;;;;7381136;19;20011;-76
2023/10/23 04:08:29;;;;;;;100.22;14.55;;;;;;;;;;7369863;19;20007;-76
2023/10/23 04:10:55;;;;;;;37.83;12.45;;;;;;;;;;7369322;19;20010;-77
2023/10/23 04:13:20;;;;;;;29.92;11.25;;;;;;;;;;7373135;19;20006;-76
2023/10/23 04:15:57;;;;;;;31.35;11.70;;;;;;;;;;7375194;19;20003;-76
2023/10/23 04:18:24;;;;;;;24.08;11.10;;;;;;;;;;7391334;19;20029;-76
2023/10/23 04:20:49;;;;;;;23.33;11.07;;;;;;;;;;7368698;19;20003;-77
2023/10/23 04:23:15;;;;;;;22.70;10.50;;;;;;;;;;7380792;19;20010;-77
2023/10/23 04:25:40;;;;;;;26.33;10.90;;;;;;;;;;7385723;19;20074;-77
2023/10/23 04:28:05;;;;;;;23.05;11.55;;;;;;;;;;7401715;19;19994;-76
2023/10/23 04:30:31;;;;;;;32.47;11.32;;;;;;;;;;7426274;19;19998;-76
2023/10/23 04:32:56;;;;;;;27.98;11.43;;;;;;;;;;7393694;19;20017;-76
2023/10/23 04:35:21;;;;;;;26.38;11.52;;;;;;;;;;7368666;19;20027;-76
2023/10/23 04:37:47;;;;;;;25.50;11.00;;;;;;;;;;7369332;19;20085;-76
2023/10/23 04:40:12;;;;;;;30.58;12.18;;;;;;;;;;7367782;19;20005;-77
2023/10/23 04:42:38;;;;;;;30.83;11.68;;;;;;;;;;7384397;19;20017;-76
2023/10/23 04:45:04;;;;;;;31.75;12.02;;;;;;;;;;7375604;19;19994;-77
2023/10/23 04:47:29;;;;;;;41.47;12.38;;;;;;;;;;7367813;19;20035;-76
2023/10/23 04:49:54;;;;;;;31.92;11.68;;;;;;;;;;7367524;19;19999;-76
2023/10/23 04:52:20;;;;;;;25.45;11.40;;;;;;;;;;7366831;19;20038;-77
2023/10/23 04:54:45;;;;;;;31.88;12.52;;;;;;;;;;7367230;19;20555;-77
2023/10/23 04:57:10;;;;;;;40.03;12.55;;;;;;;;;;7389491;19;20010;-76
2023/10/23 04:59:36;;;;;;;60.58;14.73;;;;;;;;;;7367807;19;20496;-76
2023/10/23 05:02:02;;;;;;;49.72;13.57;;;;;;;;;;7362964;19;20068;-76
2023/10/23 05:04:30;;;;;;;42.33;13.70;;;;;;;;;;7365733;19;20440;-76
2023/10/23 05:06:57;;;;;;;122.40;14.77;;;;;;;;;;7368511;19;20039;-70
2023/10/23 05:09:22;;;;;;;117.90;14.27;;;;;;;;;;7404823;19;20002;-76
2023/10/23 05:11:47;;;;;;;72.25;13.77;;;;;;;;;;7399347;19;20119;-77
2023/10/23 05:14:13;;;;;;;176.30;14.73;;;;;;;;;;7396433;19;20010;-77
2023/10/23 05:16:38;;;;;;;49.83;12.02;;;;;;;;;;7373180;19;20424;-77
2023/10/23 05:19:03;;;;;;;19.98;10.07;;;;;;;;;;7372470;19;20476;-78
2023/10/23 05:21:29;;;;;;;32.75;11.10;;;;;;;;;;7392299;19;20460;-77
2023/10/23 05:23:54;;;;;;;29.70;10.02;;;;;;;;;;7367464;19;20103;-77
2023/10/23 05:26:20;;;;;;;41.40;22.77;;;;;;;;;;7368781;19;20006;-77
2023/10/23 05:28:46;;;;;;;53.47;25.60;;;;;;;;;;7385732;19;20035;-77
2023/10/23 05:31:12;;;;;;;21.42;10.18;;;;;;;;;;7396905;19;20015;-77
2023/10/23 05:33:37;;;;;;;20.70;9.77;;;;;;;;;;7424297;19;20014;-77
2023/10/23 05:36:09;;;;;;;33.38;11.38;;;;;;;;;;7388566;19;20010;-74
2023/10/23 05:38:35;;;;;;;31.15;11.18;;;;;;;;;;7364243;19;20485;-74
2023/10/23 05:41:02;;;;;;;42.20;11.07;;;;;;;;;;7365226;19;20010;-75
2023/10/23 05:43:28;;;;;;;39.42;11.65;;;;;;;;;;7362796;19;20060;-74
2023/10/23 05:45:54;;;;;;;50.00;11.82;;;;;;;;;;7358075;19;20007;-74
2023/10/23 05:48:20;;;;;;;70.60;13.68;;;;;;;;;;7387593;19;20006;-75
2023/10/23 05:51:02;;;;;;;110.90;15.30;;;;;;;;;;7360457;19;20011;-77
2023/10/23 05:53:28;;;;;;;80.28;14.82;;;;;;;;;;7367974;19;20155;-76
2023/10/23 05:55:54;;;;;;;86.70;15.05;;;;;;;;;;7374301;19;20851;-76
2023/10/23 05:58:19;;;;;;;52.90;13.80;;;;;;;;;;7366641;19;20086;-75
2023/10/23 06:00:45;;;;;;;39.78;11.98;;;;;;;;;;7365211;19;20058;-74
2023/10/23 06:03:10;;;;;;;69.63;13.55;;;;;;;;;;7385696;19;20010;-75
2023/10/23 06:05:40;;;;;;;45.13;14.57;;;;;;;;;;7364216;19;20023;-75
2023/10/23 06:08:05;;;;;;;61.22;13.15;;;;;;;;;;7365905;19;20003;-76
2023/10/23 06:10:31;;;;;;;52.95;12.10;;;;;;;;;;7365342;19;20485;-78
2023/10/23 06:12:56;;;;;;;43.30;12.55;;;;;;;;;;7353205;19;20385;-75
2023/10/23 06:15:21;;;;;;;60.25;12.57;;;;;;;;;;7384878;19;20431;-73
2023/10/23 06:17:48;;;;;;;77.50;14.13;;;;;;;;;;7365581;19;20336;-74
2023/10/23 06:20:14;;;;;;;38.92;12.80;;;;;;;;;;7371110;19;20122;-75
2023/10/23 06:22:39;;;;;;;59.63;13.68;;;;;;;;;;7370198;19;20006;-75
2023/10/23 06:25:05;;;;;;;142.02;15.73;;;;;;;;;;7365304;19;20020;-76
2023/10/23 06:27:30;;;;;;;149.40;15.18;;;;;;;;;;7395897;19;20006;-76
2023/10/23 06:29:55;;;;;;;98.00;14.25;;;;;;;;;;7367666;19;20006;-76
2023/10/23 06:32:21;;;;;;;104.10;17.13;;;;;;;;;;7366610;19;20003;-76
2023/10/23 06:34:50;;;;;;;93.93;16.45;;;;;;;;;;7369503;19;20006;-75
2023/10/23 06:37:15;;;;;;;100.90;25.90;;;;;;;;;;7372869;19;19998;-76
2023/10/23 06:39:42;;;;;;;102.43;18.27;;;;;;;;;;7368500;19;20361;-75
2023/10/23 06:42:07;;;;;;;150.10;17.35;;;;;;;;;;7391618;19;20006;-76
2023/10/23 06:44:32;;;;;;;238.75;20.05;;;;;;;;;;7369951;19;20010;-76
2023/10/23 06:46:57;;;;;;;124.80;17.92;;;;;;;;;;7373846;19;20002;-74
2023/10/23 06:49:23;;;;;;;164.60;18.67;;;;;;;;;;7374062;19;20003;-75
2023/10/23 06:51:48;;;;;;;107.28;19.55;;;;;;;;;;7371509;19;20002;-76
2023/10/23 06:54:13;;;;;;;151.43;20.48;;;;;;;;;;7393199;19;20008;-75
2023/10/23 06:56:39;;;;;;;111.90;20.40;;;;;;;;;;7372400;19;20055;-75
2023/10/23 06:59:04;;;;;;;120.43;20.42;;;;;;;;;;7373404;19;20544;-76
2023/10/23 07:01:29;;;;;;;98.15;18.52;;;;;;;;;;7372367;19;20003;-76
2023/10/23 07:03:55;;;;;;;97.47;19.55;;;;;;;;;;7370310;19;20010;-76
2023/10/23 07:06:20;;;;;;;106.55;19.42;;;;;;;;;;7393580;19;20014;-76
2023/10/23 07:08:45;;;;;;;148.80;19.58;;;;;;;;;;7372249;19;20010;-75
2023/10/23 07:11:14;;;;;;;141.95;21.17;;;;;;;;;;7372522;19;20536;-77
2023/10/23 07:13:40;;;;;;;145.02;23.42;;;;;;;;;;7370653;19;20010;-75
2023/10/23 07:16:06;;;;;;;149.20;23.42;;;;;;;;;;7371959;19;20511;-75
2023/10/23 07:18:31;;;;;;;133.48;23.75;;;;;;;;;;7399795;19;20322;-75
2023/10/23 07:20:59;;;;;;;154.95;23.42;;;;;;;;;;7376565;19;20164;-77
2023/10/23 07:23:28;;;;;;;168.07;24.10;;;;;;;;;;7372112;19;20127;-76
2023/10/23 07:26:03;;;;;;;137.30;22.98;;;;;;;;;;7370580;19;20011;-76
2023/10/23 07:28:28;;;;;;;134.02;30.67;;;;;;;;;;7372749;19;20038;-76
2023/10/23 07:30:54;;;;;;;161.95;44.45;;;;;;;;;;7370945;19;20661;-75
2023/10/23 07:33:19;;;;;;;116.50;22.88;;;;;;;;;;7391340;19;20035;-75
2023/10/23 07:35:44;;;;;;;124.80;22.00;;;;;;;;;;7370383;19;20050;-75
2023/10/23 07:38:10;;;;;;;105.45;18.27;;;;;;;;;;7371666;19;20113;-76
2023/10/23 07:40:42;;;;;;;106.28;18.23;;;;;;;;;;7370923;19;20114;-76
2023/10/23 07:43:07;;;;;;;86.10;18.83;;;;;;;;;;7370410;19;20006;-78
2023/10/23 07:45:37;;;;;;;89.15;17.95;;;;;;;;;;7390037;19;20019;-76
2023/10/23 07:48:03;;;;;;;97.88;18.55;;;;;;;;;;7371640;19;20027;-75
2023/10/23 07:50:31;;;;;;;103.82;20.15;;;;;;;;;;7371147;19;20507;-76
2023/10/23 07:52:57;;;;;;;103.18;19.95;;;;;;;;;;7397936;19;20007;-76
2023/10/23 07:55:22;;;;;;;83.50;20.35;;;;;;;;;;7406284;19;20002;-77
2023/10/23 07:57:47;;;;;;;89.38;21.00;;;;;;;;;;7406188;19;20036;-77
2023/10/23 08:00:14;;;;;;;102.07;22.88;;;;;;;;;;7409899;19;20038;-77
2023/10/23 08:02:39;;;;;;;93.53;21.80;;;;;;;;;;7369188;19;20027;-78
2023/10/23 08:05:05;;;;;;;92.95;21.80;;;;;;;;;;7369355;19;20006;-79
2023/10/23 08:07:30;;;;;;;116.63;23.38;;;;;;;;;;7369628;19;20005;-77
2023/10/23 08:09:56;;;;;;;147.07;26.70;;;;;;;;;;7371140;19;20025;-75
2023/10/23 08:12:21;;;;;;;102.78;26.27;;;;;;;;;;7390794;19;20066;-76
2023/10/23 08:14:46;;;;;;;88.45;24.10;;;;;;;;;;7369755;19;20006;-76
2023/10/23 08:17:12;;;;;;;95.05;25.88;;;;;;;;;;7370904;19;20007;-77
2023/10/23 08:19:37;;;;;;;91.45;24.10;;;;;;;;;;7389632;19;20015;-77
2023/10/23 08:22:02;;;;;;;81.05;25.77;;;;;;;;;;7409099;19;19994;-76
2023/10/23 08:24:28;;;;;;;80.60;27.33;;;;;;;;;;7427466;19;20001;-75
2023/10/23 08:26:53;;;;;;;81.53;26.50;;;;;;;;;;7379599;19;20031;-75
2023/10/23 08:29:19;;;;;;;73.25;26.02;;;;;;;;;;7369744;19;20006;-77
2023/10/23 08:31:44;;;;;;;70.65;30.25;;;;;;;;;;7369470;19;20030;-76
2023/10/23 08:34:10;;;;;;;60.70;24.88;;;;;;;;;;7369945;19;20588;-75
2023/10/23 08:36:35;;;;;;;49.45;22.58;;;;;;;;;;7392274;19;20077;-77
2023/10/23 08:39:00;;;;;;;48.63;22.20;;;;;;;;;;7370266;19;20352;-75
2023/10/23 08:41:26;;;;;;;39.70;21.25;;;;;;;;;;7370049;19;20480;-75
2023/10/23 08:43:51;;;;;;;52.88;21.60;;;;;;;;;;7387918;19;20037;-75
2023/10/23 08:46:17;;;;;;;32.08;18.10;;;;;;;;;;7378204;19;20010;-77
2023/10/23 08:48:42;;;;;;;30.67;16.67;;;;;;;;;;7370311;19;20002;-76
2023/10/23 08:51:08;;;;;;;32.78;16.08;;;;;;;;;;7390537;19;19995;-76
2023/10/23 08:53:38;;;;;;;23.80;13.93;;;;;;;;;;7366461;19;20006;-76
2023/10/23 08:56:05;;;;;;;22.20;11.98;;;;;;;;;;7369262;19;20077;-76
2023/10/23 08:58:33;;;;;;;20.27;11.63;;;;;;;;;;7368308;19;20030;-76
2023/10/23 09:00:58;;;;;;;23.63;12.15;;;;;;;;;;7368356;19;20019;-76
2023/10/23 09:03:25;;;;;;;20.88;12.27;;;;;;;;;;7388438;19;20006;-76
2023/10/23 09:05:50;;;;;;;21.58;11.45;;;;;;;;;;7380600;19;20014;-75
2023/10/23 09:08:18;;;;;;;24.15;13.05;;;;;;;;;;7391245;19;20018;-75
2023/10/23 09:10:59;;;;;;;21.95;12.38;;;;;;;;;;7389111;19;20011;-75
2023/10/23 09:13:26;;;;;;;24.10;13.18;;;;;;;;;;7367865;19;20034;-75
2023/10/23 09:15:51;;;;;;;22.10;12.30;;;;;;;;;;7368091;19;20006;-76
2023/10/23 09:18:17;;;;;;;21.80;12.98;;;;;;;;;;7388004;19;20019;-75
2023/10/23 09:20:43;;;;;;;23.40;12.63;;;;;;;;;;7369192;19;20006;-77
2023/10/23 09:23:11;;;;;;;24.27;12.60;;;;;;;;;;7367957;19;20006;-77
2023/10/23 09:25:37;;;;;;;25.55;13.70;;;;;;;;;;7368368;19;20006;-77
2023/10/23 09:28:10;;;;;;;22.48;12.82;;;;;;;;;;7369260;19;20010;-76
2023/10/23 09:30:35;;;;;;;19.73;12.43;;;;;;;;;;7390873;19;20002;-76
2023/10/23 09:33:01;;;;;;;20.05;12.52;;;;;;;;;;7367139;19;20009;-76
2023/10/23 09:35:28;;;;;;;23.60;11.85;;;;;;;;;;7366296;19;20027;-75
2023/10/23 09:37:53;;;;;;;16.38;11.00;;;;;;;;;;7368021;19;20072;-77
2023/10/23 09:40:18;;;;;;;15.82;9.60;;;;;;;;;;7367555;19;20014;-77
2023/10/23 09:42:44;;;;;;;25.17;11.02;;;;;;;;;;7367244;19;20110;-77
2023/10/23 09:45:10;;;;;;;20.50;9.93;;;;;;;;;;7387678;19;20022;-77
2023/10/23 09:47:36;;;;;;;20.48;9.70;;;;;;;;;;7365939;19;20174;-76
2023/10/23 09:50:03;;;;;;;19.95;9.52;;;;;;;;;;7369308;19;20383;-77
2023/10/23 09:52:32;;;;;;;20.80;8.23;;;;;;;;;;7364862;19;20007;-77
2023/10/23 09:55:03;;;;;;;20.67;8.80;;;;;;;;;;7368712;19;21105;-77
2023/10/23 09:57:39;;;;;;;17.20;7.65;;;;;;;;;;7389803;19;20002;-78
2023/10/23 10:00:16;;;;;;;15.50;6.80;;;;;;;;;;7368530;19;20004;-77
2023/10/23 10:02:53;;;;;;;13.00;6.97;;;;;;;;;;7365932;19;20090;-78
2023/10/23 10:05:26;;;;;;;15.85;7.35;;;;;;;;;;7366056;19;20020;-77
2023/10/23 10:08:01;;;;;;;17.20;6.78;;;;;;;;;;7368292;19;20011;-77
2023/10/23 10:10:27;;;;;;;16.27;7.35;;;;;;;;;;7388388;19;20006;-75
2023/10/23 10:12:56;;;;;;;16.95;6.38;;;;;;;;;;7381854;19;20532;-75
2023/10/23 10:15:22;;;;;;;15.32;6.78;;;;;;;;;;7391340;19;19998;-75
2023/10/23 10:17:49;;;;;;;15.60;6.18;;;;;;;;;;7399156;19;20061;-75
2023/10/23 10:20:16;;;;;;;15.13;5.40;;;;;;;;;;7386732;19;20014;-76
2023/10/23 10:22:42;;;;;;;13.65;5.97;;;;;;;;;;7388750;19;20461;-76
2023/10/23 10:25:09;;;;;;;17.70;6.68;;;;;;;;;;7361527;19;20078;-76
2023/10/23 10:27:35;;;;;;;13.13;6.07;;;;;;;;;;7388466;19;20003;-74
2023/10/23 10:30:04;;;;;;;15.32;5.70;;;;;;;;;;7364483;19;20583;-75
2023/10/23 10:32:32;;;;;;;14.50;6.28;;;;;;;;;;7364281;19;20013;-76
2023/10/23 10:35:03;;;;;;;15.75;6.57;;;;;;;;;;7364733;19;20014;-75
2023/10/23 10:37:29;;;;;;;;;;;;;;;;;;7365551;19;20017;-74
2023/10/23 10:39:54;;;;;;;14.15;5.80;;;;;;;;;;7367766;19;19915;-75
2023/10/23 10:42:22;;;;;;;15.68;6.18;;;;;;;;;;7386500;19;20041;-74
2023/10/23 10:44:56;;;;;;;13.50;6.35;;;;;;;;;;7365149;19;20014;-73
2023/10/23 10:47:39;;;;;;;13.68;5.47;;;;;;;;;;7364941;19;20074;-73
2023/10/23 10:50:05;;;;;;;14.15;5.25;;;;;;;;;;7365534;19;20010;-76
2023/10/23 10:52:35;;;;;;;12.32;5.25;;;;;;;;;;7365800;19;20044;-75
2023/10/23 10:55:01;;;;;;;9.37;4.47;;;;;;;;;;7365408;19;20414;-75
2023/10/23 10:57:27;;;;;;;13.23;4.80;;;;;;;;;;7385647;19;20274;-75
2023/10/23 11:00:03;;;;;;;9.98;4.60;;;;;;;;;;7363131;19;20109;-73
2023/10/23 11:02:28;;;;;;;12.02;4.93;;;;;;;;;;7359664;19;20347;-74
2023/10/23 11:04:54;;;;;;;13.93;5.20;;;;;;;;;;7366417;19;20010;-74
2023/10/23 11:07:23;;;;;;;10.30;4.63;;;;;;;;;;7369216;19;20824;-74
2023/10/23 11:09:50;;;;;;;11.38;4.72;;;;;;;;;;7364912;19;20018;-74
2023/10/23 11:12:20;;;;;;;13.73;5.05;;;;;;;;;;7389683;19;20038;-74
2023/10/23 11:14:48;;;;;;;8.63;4.25;;;;;;;;;;7368380;19;20667;-75
2023/10/23 11:17:14;;;;;;;15.60;4.43;;;;;;;;;;7367829;19;20003;-74
2023/10/23 11:19:44;;;;;;;10.85;3.85;;;;;;;;;;7372325;19;20038;-74
2023/10/23 11:22:11;;;;;;;10.75;4.65;;;;;;;;;;7370438;19;20010;-74
2023/10/23 11:24:38;;;;;;;9.18;3.90;;;;;;;;;;7391184;19;20010;-74
2023/10/23 11:27:07;;;;;;;11.73;4.13;;;;;;;;;;7371386;19;20006;-74
2023/10/23 11:29:39;;;;;;;14.07;4.15;;;;;;;;;;7371481;19;20020;-76
2023/10/23 11:32:08;;;;;;;9.85;4.00;;;;;;;;;;7370662;19;20026;-75
2023/10/23 11:34:37;;;;;;;13.50;5.18;;;;;;;;;;7383565;19;20012;-75
2023/10/23 11:37:04;;;;;;;15.85;7.10;;;;;;;;;;7395904;19;20352;-75
2023/10/23 11:39:30;;;;;;;13.00;3.60;;;;;;;;;;7408943;19;20014;-74
2023/10/23 11:41:57;;;;;;;10.07;3.28;;;;;;;;;;7372291;19;20023;-75
2023/10/23 11:44:26;;;;;;;9.90;3.33;;;;;;;;;;7383158;19;20018;-75
2023/10/23 11:46:55;;;;;;;9.45;3.17;;;;;;;;;;7377652;19;20010;-74
2023/10/23 11:49:24;;;;;;;8.13;2.92;;;;;;;;;;7377719;19;20128;-75
2023/10/23 11:51:51;;;;;;;8.05;2.60;;;;;;;;;;7370178;19;20006;-74
2023/10/23 11:54:17;;;;;;;10.13;2.70;;;;;;;;;;7391357;19;20014;-75
2023/10/23 11:56:43;;;;;;;10.07;2.70;;;;;;;;;;7369538;19;20118;-74
2023/10/23 11:59:14;;;;;;;8.07;2.83;;;;;;;;;;7371546;19;20401;-76
2023/10/23 12:01:41;;;;;;;5.47;2.28;;;;;;;;;;7369844;19;20014;-74
2023/10/23 12:04:07;;;;;;;9.30;2.70;;;;;;;;;;7369439;19;20014;-75
2023/10/23 12:06:32;;;;;;;7.78;2.20;;;;;;;;;;7388724;19;20009;-75
2023/10/23 12:08:57;;;;;;;8.05;2.42;;;;;;;;;;7372243;19;20382;-75
2023/10/23 12:11:23;;;;;;;8.02;2.50;;;;;;;;;;7385309;19;20015;-75
2023/10/23 12:13:48;;;;;;;7.95;2.42;;;;;;;;;;7378549;19;20003;-75
2023/10/23 12:16:14;;;;;;;11.13;2.67;;;;;;;;;;7374182;19;20074;-75
2023/10/23 12:18:39;;;;;;;9.38;2.67;;;;;;;;;;7375752;19;20042;-75
2023/10/23 12:21:05;;;;;;;7.85;2.35;;;;;;;;;;7392750;19;19998;-74
2023/10/23 12:23:30;;;;;;;7.97;2.90;;;;;;;;;;7367038;19;20010;-74
2023/10/23 12:25:56;;;;;;;7.00;2.70;;;;;;;;;;7369232;19;20009;-74
2023/10/23 12:28:21;;;;;;;12.00;2.50;;;;;;;;;;7369990;19;20006;-76
2023/10/23 12:30:47;;;;;;;11.73;2.97;;;;;;;;;;7369049;19;20015;-75
2023/10/23 12:33:12;;;;;;;6.38;2.58;;;;;;;;;;7390233;19;20817;-75
2023/10/23 12:35:37;;;;;;;9.05;2.40;;;;;;;;;;7367310;19;20006;-75
2023/10/23 12:38:03;;;;;;;10.70;2.72;;;;;;;;;;7369889;19;20002;-74
2023/10/23 12:40:28;;;;;;;8.27;2.88;;;;;;;;;;7369009;19;20006;-75
2023/10/23 12:42:53;;;;;;;6.43;2.50;;;;;;;;;;7368262;19;20005;-74
2023/10/23 12:45:19;;;;;;;7.63;2.25;;;;;;;;;;7389342;19;20003;-74
2023/10/23 12:47:44;;;;;;;10.55;2.42;;;;;;;;;;7367983;19;20010;-75
2023/10/23 12:50:09;;;;;;;5.90;2.30;;;;;;;;;;7369642;19;20006;-73
2023/10/23 12:52:35;;;;;;;11.52;2.95;;;;;;;;;;7367954;19;20082;-74
2023/10/23 12:55:00;;;;;;;11.27;4.18;;;;;;;;;;7368700;19;20031;-74
2023/10/23 12:57:26;;;;;;;13.30;5.05;;;;;;;;;;7391873;19;20579;-74
2023/10/23 12:59:51;;;;;;;8.90;2.72;;;;;;;;;;7368208;19;20010;-74
2023/10/23 13:02:17;;;;;;;10.35;3.20;;;;;;;;;;7366728;19;20007;-75
2023/10/23 13:04:42;;;;;;;8.43;2.47;;;;;;;;;;7381179;19;20045;-75
2023/10/23 13:07:07;;;;;;;8.68;2.58;;;;;;;;;;7378297;19;20046;-74
2023/10/23 13:09:32;;;;;;;7.13;2.40;;;;;;;;;;7391593;19;20006;-76
2023/10/23 13:11:58;;;;;;;5.90;2.20;;;;;;;;;;7367357;19;20011;-76
2023/10/23 13:14:23;;;;;;;6.88;2.30;;;;;;;;;;7367954;19;20282;-75
2023/10/23 13:16:48;;;;;;;7.80;2.38;;;;;;;;;;7367307;19;20424;-75
2023/10/23 13:19:14;;;;;;;9.50;2.47;;;;;;;;;;7368161;19;20110;-74
2023/10/23 13:21:39;;;;;;;8.10;2.35;;;;;;;;;;7371065;19;20006;-76
2023/10/23 13:24:05;;;;;;;13.40;3.15;;;;;;;;;;7386583;19;20009;-75
2023/10/23 13:26:31;;;;;;;10.27;2.67;;;;;;;;;;7366351;19;20495;-75
2023/10/23 13:28:56;;;;;;;8.52;2.80;;;;;;;;;;7368038;19;20006;-73
2023/10/23 13:31:27;;;;;;;6.80;2.80;;;;;;;;;;7368036;19;20038;-76
2023/10/23 13:33:52;;;;;;;8.63;2.95;;;;;;;;;;7366153;19;20030;-76
2023/10/23 13:36:18;;;;;;;15.57;6.82;;;;;;;;;;7389321;19;20018;-74
2023/10/23 13:38:43;;;;;;;28.02;17.05;;;;;;;;;;7367388;19;20038;-75
2023/10/23 13:41:08;;;;;;;11.20;3.20;;;;;;;;;;7366676;19;20611;-75
2023/10/23 13:43:34;;;;;;;8.45;2.80;;;;;;;;;;7365165;19;20007;-75
2023/10/23 13:46:00;;;;;;;9.93;2.70;;;;;;;;;;7365776;19;20086;-74
2023/10/23 13:48:25;;;;;;;9.77;2.80;;;;;;;;;;7389745;19;20081;-75
2023/10/23 13:50:51;;;;;;;8.65;2.83;;;;;;;;;;7365963;19;20044;-75
2023/10/23 13:53:20;;;;;;;6.45;2.60;;;;;;;;;;7363643;19;20512;-76
2023/10/23 13:55:47;;;;;;;10.80;2.88;;;;;;;;;;7367054;19;20668;-75
2023/10/23 13:58:12;;;;;;;9.00;2.70;;;;;;;;;;7366058;19;20030;-75
2023/10/23 14:00:38;;;;;;;12.65;3.28;;;;;;;;;;7387060;19;20019;-75
2023/10/23 14:03:04;;;;;;;9.18;2.90;;;;;;;;;;7373373;19;20011;-75
2023/10/23 14:05:30;;;;;;;9.27;3.05;;;;;;;;;;7363356;19;20349;-75
2023/10/23 14:07:55;;;;;;;12.93;2.85;;;;;;;;;;7366162;19;20007;-74
2023/10/23 14:10:20;;;;;;;6.75;2.70;;;;;;;;;;7366341;19;20010;-75
2023/10/23 14:12:46;;;;;;;9.63;3.05;;;;;;;;;;7364746;19;20027;-75
2023/10/23 14:15:12;;;;;;;11.35;3.33;;;;;;;;;;7386239;19;20017;-75
2023/10/23 14:17:38;;;;;;;8.35;2.72;;;;;;;;;;7364247;19;20796;-75